Time;durP1;ratioP1;P1;durP2;ratioP2;P2;SDS_P1;SDS_P2;PMS_P1;PMS_P2;Temp;Humidity;BMP_temperature;BMP_pressure;BME280_temperature;BME280_humidity;BME280_pressure;Samples;Min_cycle;Max_cycle;Signal;HPM_P1;HPM_P2
2024/04/25 00:00:16;;;;;;;;;5.25;3.25;;;;;9.13;52.15;100614.91;5427350;26;73132;-62
2024/04/25 00:02:42;;;;;;;;;7.50;4.25;;;;;9.13;50.87;100612.31;5438342;26;72800;-63
2024/04/25 00:05:07;;;;;;;;;72.50;51.75;;;;;9.14;51.82;100613.19;5428094;26;43996;-63
2024/04/25 00:07:32;;;;;;;;;6.75;5.00;;;;;9.19;51.56;100611.34;5444384;26;70928;-61
2024/04/25 00:09:57;;;;;;;;;8.50;5.00;;;;;9.23;52.29;100602.53;5464149;25;75038;-64
2024/04/25 00:12:23;;;;;;;;;6.25;5.00;;;;;9.25;51.76;100600.72;5444052;25;65843;-63
2024/04/25 00:14:48;;;;;;;;;8.00;4.00;;;;;9.30;52.06;100598.03;5431066;26;58032;-63
2024/04/25 00:17:13;;;;;;;;;8.25;3.50;;;;;9.31;51.39;100597.13;5445607;26;43906;-61
2024/04/25 00:19:39;;;;;;;;;9.25;4.25;;;;;9.32;51.58;100598.84;5446202;26;73950;-61
2024/04/25 00:22:05;;;;;;;;;6.25;3.75;;;;;9.31;51.27;100595.38;5438590;26;60833;-61
2024/04/25 00:24:30;;;;;;;;;8.25;4.25;;;;;9.34;50.95;100598.81;5440956;26;43752;-62
2024/04/25 00:26:56;;;;;;;;;3.00;3.00;;;;;9.31;51.89;100586.66;5465045;26;43964;-63
2024/04/25 00:29:22;;;;;;;;;6.25;3.25;;;;;9.31;52.13;100582.31;5437723;26;68629;-64
2024/04/25 00:31:47;;;;;;;;;4.00;3.00;;;;;9.32;52.04;100585.78;5448620;26;55161;-64
2024/04/25 00:34:12;;;;;;;;;41.25;27.25;;;;;9.35;51.08;100572.66;5445722;26;45166;-64
2024/04/25 00:36:38;;;;;;;;;56.25;43.00;;;;;9.37;52.33;100572.63;5457702;25;43828;-64
2024/04/25 00:39:03;;;;;;;;;6.50;2.75;;;;;9.40;51.39;100567.31;5457680;25;44706;-63
2024/04/25 00:41:28;;;;;;;;;7.25;4.00;;;;;9.40;51.86;100568.19;5449190;26;54850;-63
2024/04/25 00:43:54;;;;;;;;;5.75;4.00;;;;;9.38;51.82;100559.50;5452301;26;44029;-63
2024/04/25 00:46:20;;;;;;;;;4.00;3.50;;;;;9.38;51.91;100561.25;5480491;25;63536;-64
2024/04/25 00:48:46;;;;;;;;;4.00;4.00;;;;;9.36;52.56;100557.84;5449418;25;44730;-64
2024/04/25 00:51:12;;;;;;;;;3.50;2.25;;;;;9.36;51.91;100565.66;5455002;25;43775;-63
2024/04/25 00:53:38;;;;;;;;;2.50;2.00;;;;;9.34;51.29;100557.03;5460263;26;62390;-63
2024/04/25 00:56:05;;;;;;;;;7.25;3.00;;;;;9.32;51.95;100559.66;5462409;26;43978;-63
2024/04/25 00:58:32;;;;;;;;;5.00;4.00;;;;;9.33;52.05;100558.78;5457525;26;45680;-64
2024/04/25 01:00:59;;;;;;;;;3.75;3.75;;;;;9.34;52.82;100557.88;5443353;26;43905;-63
2024/04/25 01:03:24;;;;;;;;;6.75;4.25;;;;;9.35;51.45;100553.50;5453898;26;43951;-64
2024/04/25 01:05:51;;;;;;;;;4.75;3.75;;;;;9.32;52.07;100551.84;5445416;26;68434;-64
2024/04/25 01:08:16;;;;;;;;;4.50;4.00;;;;;9.28;51.99;100540.59;5457506;26;47065;-64
2024/04/25 01:10:42;;;;;;;;;5.50;5.25;;;;;9.27;52.00;100546.72;5451246;25;43960;-64
2024/04/25 01:13:08;;;;;;;;;5.00;4.00;;;;;9.26;52.34;100537.19;5456465;25;45420;-63
2024/04/25 01:15:34;;;;;;;;;4.00;4.00;;;;;9.25;53.21;100543.28;5464473;25;43697;-63
2024/04/25 01:18:00;;;;;;;;;4.00;3.25;;;;;9.22;52.48;100538.13;5463522;25;45004;-64
2024/04/25 01:20:25;;;;;;;;;5.50;5.50;;;;;9.19;52.55;100534.75;5459958;25;43816;-63
2024/04/25 01:22:51;;;;;;;;;4.25;4.00;;;;;9.19;53.37;100533.00;5441989;25;68239;-64
2024/04/25 01:25:18;;;;;;;;;4.75;4.25;;;;;9.20;52.67;100526.03;5462756;25;43903;-64
2024/04/25 01:27:43;;;;;;;;;5.75;4.00;;;;;9.22;53.11;100517.25;5433163;26;43974;-64
2024/04/25 01:30:09;;;;;;;;;3.25;2.75;;;;;9.23;53.04;100515.50;5458020;25;67407;-64
2024/04/25 01:32:35;;;;;;;;;10.00;4.00;;;;;9.22;53.09;100511.19;5447195;26;43912;-63
2024/04/25 01:35:01;;;;;;;;;6.25;2.50;;;;;9.21;53.18;100505.09;5463723;26;44065;-64
2024/04/25 01:37:27;;;;;;;;;4.50;3.00;;;;;9.20;52.37;100510.34;5445359;26;44139;-62
2024/04/25 01:39:52;;;;;;;;;5.50;4.00;;;;;9.20;52.26;100511.22;5464590;25;72704;-62
2024/04/25 01:42:17;;;;;;;;;4.75;3.00;;;;;9.19;53.60;100504.28;5490156;25;62614;-64
2024/04/25 01:44:43;;;;;;;;;4.75;2.75;;;;;9.18;52.40;100512.16;5446324;25;52846;-64
2024/04/25 01:47:08;;;;;;;;;6.75;5.00;;;;;9.15;53.21;100504.41;5454459;26;74312;-64
2024/04/25 01:49:33;;;;;;;;;4.25;3.25;;;;;9.15;53.13;100501.78;5452146;26;68452;-64
2024/04/25 01:51:59;;;;;;;;;6.75;5.00;;;;;9.14;53.55;100495.72;5459728;26;67107;-65
2024/04/25 01:54:24;;;;;;;;;3.00;3.00;;;;;9.16;52.80;100496.53;5462067;25;43977;-65
2024/04/25 01:56:49;;;;;;;;;7.00;4.50;;;;;9.16;52.83;100495.69;5424748;26;71140;-65
2024/04/25 01:59:15;;;;;;;;;5.50;4.00;;;;;9.16;52.26;100490.47;5437181;26;65903;-64
2024/04/25 02:01:40;;;;;;;;;5.25;4.00;;;;;9.16;52.83;100496.53;5461152;26;48058;-64
2024/04/25 02:04:05;;;;;;;;;8.50;3.00;;;;;9.15;53.61;100493.94;5464079;25;69199;-64
2024/04/25 02:06:30;;;;;;;;;4.00;3.75;;;;;9.15;53.31;100491.34;5455964;25;44715;-64
2024/04/25 02:08:57;;;;;;;;;4.00;3.50;;;;;9.15;52.93;100484.34;5461106;26;52565;-63
2024/04/25 02:11:22;;;;;;;;;8.00;5.75;;;;;9.14;53.16;100480.03;5453845;26;43980;-64
2024/04/25 02:13:48;;;;;;;;;7.75;4.25;;;;;9.13;54.33;100483.53;5451111;26;43992;-64
2024/04/25 02:16:13;;;;;;;;;7.50;4.50;;;;;9.08;53.64;100473.22;5445712;26;72886;-64
2024/04/25 02:18:38;;;;;;;;;4.75;3.25;;;;;9.05;54.13;100473.31;5459285;25;62540;-63
2024/04/25 02:26:32;;;;;;;;;5.50;3.75;;;;;8.88;53.33;100463.25;5437717;26;43864;-63
2024/04/25 02:28:57;;;;;;;;;4.50;2.25;;;;;8.86;54.17;100474.66;5451701;26;56964;-64
2024/04/25 02:31:28;;;;;;;;;6.00;4.25;;;;;8.84;53.00;100461.63;5452862;25;68269;-64
2024/04/25 02:33:53;;;;;;;;;6.25;4.25;;;;;8.81;54.07;100464.31;5462715;25;44008;-64
2024/04/25 02:36:19;;;;;;;;;7.00;4.50;;;;;8.78;53.67;100458.31;5447811;25;71579;-63
2024/04/25 02:38:44;;;;;;;;;5.00;4.50;;;;;8.73;53.26;100446.25;5414388;26;43869;-63
2024/04/25 02:41:09;;;;;;;;;9.75;5.00;;;;;8.73;54.26;100448.84;5448600;26;66620;-63
2024/04/25 02:43:34;;;;;;;;;4.75;4.00;;;;;8.71;53.79;100445.44;5460132;26;43989;-63
2024/04/25 02:46:00;;;;;;;;;5.75;4.00;;;;;8.70;54.52;100442.84;5458027;26;72556;-64
2024/04/25 02:48:25;;;;;;;;;4.00;4.00;;;;;8.66;54.11;100447.28;5450566;26;70964;-60
2024/04/25 02:50:50;;;;;;;;;5.75;4.00;;;;;8.67;53.77;100445.53;5458142;26;68155;-64
2024/04/25 02:53:16;;;;;;;;;4.75;4.00;;;;;8.65;54.70;100442.09;5433866;26;62178;-61
2024/04/25 02:55:41;;;;;;;;;6.00;4.25;;;;;8.63;54.21;100438.69;5449496;26;43901;-61
2024/04/25 02:58:06;;;;;;;;;4.25;4.00;;;;;8.64;55.14;100438.66;5454743;26;71755;-61
2024/04/25 03:00:32;;;;;;;;;8.00;5.00;;;;;8.62;54.20;100432.56;5464789;26;68404;-63
2024/04/25 03:02:57;;;;;;;;;7.00;3.50;;;;;8.63;54.95;100436.06;5449619;25;73164;-64
2024/04/25 03:05:23;;;;;;;;;4.50;4.50;;;;;8.62;54.95;100436.94;5459223;25;44748;-64
2024/04/25 03:07:48;;;;;;;;;3.50;3.00;;;;;8.64;55.03;100430.81;5489523;25;44160;-63
2024/04/25 03:10:14;;;;;;;;;7.25;4.75;;;;;8.64;55.32;100422.13;5451859;26;45224;-63
2024/04/25 03:12:39;;;;;;;;;5.00;4.00;;;;;8.64;54.69;100423.00;5458973;26;70835;-63
2024/04/25 03:15:04;;;;;;;;;9.50;3.00;;;;;8.62;54.07;100416.94;5454109;26;74045;-62
2024/04/25 03:17:30;;;;;;;;;2.75;2.75;;;;;8.61;55.16;100410.00;5457455;25;68809;-63
2024/04/25 03:19:55;;;;;;;;;4.50;4.25;;;;;8.60;54.03;100420.47;5461523;26;64427;-63
2024/04/25 03:22:20;;;;;;;;;8.50;5.00;;;;;8.58;54.12;100412.69;5444367;25;44118;-64
2024/04/25 03:24:46;;;;;;;;;7.50;3.00;;;;;8.56;53.68;100409.25;5452166;26;74216;-64
2024/04/25 03:27:11;;;;;;;;;5.00;5.00;;;;;8.52;54.50;100412.84;5452043;26;68968;-65
2024/04/25 03:29:36;;;;;;;;;5.00;4.00;;;;;8.47;53.80;100405.13;5463295;25;63450;-64
2024/04/25 03:32:02;;;;;;;;;6.50;5.00;;;;;8.46;54.21;100403.41;5463126;26;69738;-65
2024/04/25 03:34:27;;;;;;;;;3.75;3.00;;;;;8.43;55.45;100400.88;5461021;26;43994;-64
2024/04/25 03:36:54;;;;;;;;;3.75;3.00;;;;;8.40;54.01;100402.69;5460499;26;43686;-65
2024/04/25 03:39:20;;;;;;;;;5.00;3.00;;;;;8.37;54.89;100398.38;5452034;26;44036;-63
2024/04/25 03:41:50;;;;;;;;;3.50;3.50;;;;;8.35;54.36;100397.56;5453474;26;45160;-63
2024/04/25 03:44:15;;;;;;;;;8.50;4.00;;;;;8.33;54.62;100389.75;5440436;25;44244;-64
2024/04/25 03:46:41;;;;;;;;;6.50;4.00;;;;;8.34;54.14;100390.66;5455803;26;65279;-64
2024/04/25 03:49:08;;;;;;;;;5.75;3.25;;;;;8.35;55.71;100387.97;5457909;25;55280;-64
2024/04/25 03:51:33;;;;;;;;;4.75;4.00;;;;;8.35;55.12;100385.38;5448606;25;43851;-64
2024/04/25 03:53:59;;;;;;;;;8.00;4.50;;;;;8.40;54.99;100387.88;5451836;26;45622;-64
2024/04/25 03:56:24;;;;;;;;;3.75;3.00;;;;;8.40;55.49;100387.03;5461446;25;67351;-64
2024/04/25 03:58:49;;;;;;;;;5.25;3.75;;;;;8.40;54.26;100387.88;5464245;25;64485;-64
2024/04/25 04:01:15;;;;;;;;;6.00;4.25;;;;;8.39;54.80;100393.13;5457019;25;70320;-64
2024/04/25 04:03:40;;;;;;;;;7.50;2.25;;;;;8.36;54.18;100384.50;5457938;26;50297;-64
2024/04/25 04:06:05;;;;;;;;;9.00;3.75;;;;;8.36;55.08;100383.63;5458443;26;65686;-64
2024/04/25 04:08:31;;;;;;;;;8.50;4.50;;;;;8.38;55.70;100386.22;5456083;26;44232;-63
2024/04/25 04:10:56;;;;;;;;;6.25;5.50;;;;;8.38;55.80;100389.66;5454730;26;44051;-65
2024/04/25 04:13:21;;;;;;;;;10.25;5.00;;;;;8.39;55.36;100380.09;5461409;26;62169;-61
2024/04/25 04:15:47;;;;;;;;;2.00;2.00;;;;;8.40;55.83;100387.88;5459619;26;70823;-63
2024/04/25 04:18:12;;;;;;;;;10.00;8.00;;;;;8.42;54.22;100377.41;5464646;25;67007;-64
2024/04/25 04:20:37;;;;;;;;;8.00;4.50;;;;;8.41;54.62;100378.28;5459447;26;72770;-63
2024/04/25 04:23:03;;;;;;;;;3.75;3.75;;;;;8.43;54.76;100385.25;5464842;25;50915;-65
2024/04/25 04:25:28;;;;;;;;;7.00;4.25;;;;;8.42;55.28;100378.28;5463398;25;44120;-65
2024/04/25 04:27:53;;;;;;;;;8.75;4.00;;;;;8.44;54.99;100380.88;5458821;26;66454;-63
2024/04/25 04:30:19;;;;;;;;;8.25;4.25;;;;;8.42;54.73;100380.91;5445545;25;66226;-63
2024/04/25 04:32:45;;;;;;;;;9.25;6.00;;;;;8.41;55.15;100370.47;5450194;25;45570;-63
2024/04/25 04:35:10;;;;;;;;;9.25;6.75;;;;;8.40;55.45;100374.84;5464460;25;70268;-64
2024/04/25 04:37:35;;;;;;;;;12.00;11.00;;;;;8.41;55.41;100365.25;5455245;26;45508;-64
2024/04/25 04:40:01;;;;;;;;;5.50;5.00;;;;;8.43;54.87;100368.72;5457406;25;44066;-65
2024/04/25 04:42:26;;;;;;;;;5.75;5.75;;;;;8.43;54.79;100363.50;5457704;26;44719;-65
2024/04/25 04:44:51;;;;;;;;;8.00;4.25;;;;;8.43;54.71;100361.78;5452793;26;71267;-65
2024/04/25 04:47:17;;;;;;;;;6.50;4.00;;;;;8.42;56.17;100352.22;5464898;25;44048;-65
2024/04/25 04:49:42;;;;;;;;;10.25;4.00;;;;;8.45;55.29;100359.13;5440130;26;43909;-64
2024/04/25 04:52:07;;;;;;;;;10.50;4.50;;;;;8.46;54.95;100353.00;5456263;26;75037;-63
2024/04/25 04:54:33;;;;;;;;;5.00;5.00;;;;;8.46;54.59;100366.03;5449026;26;69540;-63
2024/04/25 04:56:58;;;;;;;;;8.50;5.00;;;;;8.47;55.29;100367.78;5450152;26;63663;-63
2024/04/25 04:59:23;;;;;;;;;7.75;3.50;;;;;8.47;55.69;100367.78;5457534;26;70542;-65
2024/04/25 05:01:48;;;;;;;;;6.75;5.25;;;;;8.48;55.72;100366.84;5450069;25;72131;-63
2024/04/25 05:04:14;;;;;;;;;4.00;4.00;;;;;8.47;55.62;100366.00;5455674;26;71980;-64
2024/04/25 05:06:39;;;;;;;;;7.25;4.25;;;;;8.48;55.32;100362.53;5463158;25;44072;-65
2024/04/25 05:09:05;;;;;;;;;5.50;4.00;;;;;8.52;54.62;100365.91;5450444;26;71985;-64
2024/04/25 05:11:31;;;;;;;;;6.25;4.00;;;;;8.55;54.97;100365.81;5461314;26;50771;-63
2024/04/25 05:13:56;;;;;;;;;8.75;5.00;;;;;8.58;54.92;100368.34;5463205;26;44403;-65
2024/04/25 05:16:22;;;;;;;;;5.75;4.75;;;;;8.60;55.59;100363.94;5464894;25;44204;-67
2024/04/25 05:18:47;;;;;;;;;5.75;4.00;;;;;8.64;55.57;100365.59;5459448;25;67247;-64
2024/04/25 05:21:13;;;;;;;;;5.75;4.75;;;;;8.67;54.88;100364.66;5460462;25;69267;-63
2024/04/25 05:23:38;;;;;;;;;4.00;4.00;;;;;8.70;54.90;100361.97;5457063;26;43996;-64
2024/04/25 05:26:06;;;;;;;;;8.75;4.75;;;;;8.73;54.21;100354.09;5462698;26;63846;-64
2024/04/25 05:28:31;;;;;;;;;5.25;5.00;;;;;8.73;54.50;100351.47;5456984;25;43862;-60
2024/04/25 05:30:56;;;;;;;;;7.25;3.75;;;;;8.77;54.79;100354.88;5444239;26;44140;-62
2024/04/25 05:33:22;;;;;;;;;9.00;6.25;;;;;8.80;55.45;100357.38;5460156;26;73001;-58
2024/04/25 05:35:50;;;;;;;;;9.25;5.00;;;;;8.83;54.69;100352.94;5450866;26;53356;-63
2024/04/25 05:38:15;;;;;;;;;8.50;5.00;;;;;8.86;54.51;100350.25;5464541;25;43933;-59
2024/04/25 05:40:40;;;;;;;;;6.75;5.00;;;;;8.89;54.34;100347.56;5462618;26;74009;-62
2024/04/25 05:43:06;;;;;;;;;8.75;5.00;;;;;8.92;54.72;100347.50;5443221;25;66708;-62
2024/04/25 05:45:31;;;;;;;;;9.50;4.50;;;;;8.97;54.56;100351.72;5454284;26;44915;-62
2024/04/25 05:47:56;;;;;;;;;5.00;5.00;;;;;9.01;53.88;100354.22;5465549;26;43825;-62
2024/04/25 05:50:22;;;;;;;;;8.00;4.00;;;;;9.05;53.71;100360.22;5454002;26;73930;-61
2024/04/25 05:52:47;;;;;;;;;6.50;4.75;;;;;9.07;54.23;100354.03;5441618;26;43712;-62
2024/04/25 05:55:13;;;;;;;;;6.00;5.00;;;;;9.09;54.80;100365.28;5446792;25;44045;-61
2024/04/25 05:57:39;;;;;;;;;8.50;5.00;;;;;9.15;54.51;100360.81;5462052;25;43806;-60
2024/04/25 06:00:05;;;;;;;;;12.25;5.25;;;;;9.16;54.07;100358.16;5440167;25;43877;-65
2024/04/25 06:02:30;;;;;;;;;26.25;18.25;;;;;9.20;53.70;100354.56;5460102;26;43845;-64
2024/04/25 06:04:56;;;;;;;;;57.25;45.25;;;;;9.24;54.00;100357.94;5450890;26;43971;-65
2024/04/25 06:07:21;;;;;;;;;8.75;6.25;;;;;9.28;53.22;100357.81;5461789;26;43874;-65
2024/04/25 06:09:48;;;;;;;;;6.00;5.00;;;;;9.31;54.18;100359.47;5453827;26;73066;-63
2024/04/25 06:12:16;;;;;;;;;13.25;6.25;;;;;9.31;53.46;100352.53;5462193;25;43981;-64
2024/04/25 06:14:41;;;;;;;;;9.25;5.50;;;;;9.31;54.40;100356.88;5437285;26;43870;-65
2024/04/25 06:17:07;;;;;;;;;7.25;6.00;;;;;9.34;53.68;100354.19;5425095;26;69953;-62
2024/04/25 06:19:32;;;;;;;;;11.00;8.00;;;;;9.35;53.85;100357.63;5454428;26;43988;-67
2024/04/25 06:21:58;;;;;;;;;12.25;7.25;;;;;9.34;54.04;100355.94;5455223;26;44081;-67
2024/04/25 06:24:24;;;;;;;;;10.50;5.25;;;;;9.36;53.62;100354.16;5452479;25;43674;-66
2024/04/25 06:26:49;;;;;;;;;8.75;5.75;;;;;9.37;53.74;100356.72;5442066;26;43817;-65
2024/04/25 06:29:14;;;;;;;;;10.25;7.25;;;;;9.37;54.24;100346.28;5439726;26;68139;-65
2024/04/25 06:31:40;;;;;;;;;14.50;6.50;;;;;9.43;54.14;100350.47;5439110;26;70568;-64
2024/04/25 06:34:09;;;;;;;;;9.75;5.50;;;;;9.49;54.18;100342.44;5438002;26;53165;-64
2024/04/25 06:36:34;;;;;;;;;9.75;6.00;;;;;9.58;52.79;100344.81;5452640;26;43714;-64
2024/04/25 06:39:01;;;;;;;;;8.75;6.00;;;;;9.64;53.76;100341.16;5431065;26;45317;-64
2024/04/25 06:41:27;;;;;;;;;8.00;5.75;;;;;9.69;53.20;100340.09;5439039;26;43957;-65
2024/04/25 06:43:52;;;;;;;;;11.00;5.25;;;;;9.71;52.30;100337.44;5440615;26;43838;-64
2024/04/25 06:46:18;;;;;;;;;7.50;5.75;;;;;9.76;52.68;100337.31;5454294;25;43931;-70
2024/04/25 06:48:45;;;;;;;;;11.00;6.25;;;;;9.81;52.35;100330.16;5430775;26;70917;-62
2024/04/25 06:51:11;;;;;;;;;11.75;7.00;;;;;9.83;52.55;100331.84;5434673;26;44414;-61
2024/04/25 06:53:37;;;;;;;;;7.25;6.00;;;;;9.87;52.21;100327.38;5433789;26;43916;-62
2024/04/25 06:56:03;;;;;;;;;5.25;4.00;;;;;9.92;52.16;100325.50;5434118;26;43816;-64
2024/04/25 06:58:28;;;;;;;;;8.00;5.50;;;;;9.94;51.91;100323.69;5443140;26;45404;-64
2024/04/25 07:00:53;;;;;;;;;7.50;6.75;;;;;9.96;51.67;100327.09;5467328;25;43913;-65
2024/04/25 07:03:19;;;;;;;;;9.75;6.25;;;;;9.98;51.78;100330.50;5447015;26;44005;-63
2024/04/25 07:05:44;;;;;;;;;9.00;7.00;;;;;10.00;51.25;100326.09;5457058;26;72189;-63
2024/04/25 07:08:09;;;;;;;;;8.75;7.25;;;;;10.04;51.63;100324.25;5445691;25;53754;-63
2024/04/25 07:10:35;;;;;;;;;9.25;6.25;;;;;10.07;51.37;100317.19;5460005;26;43847;-65
2024/04/25 07:13:00;;;;;;;;;10.50;6.50;;;;;10.12;51.09;100314.41;5463944;26;43958;-64
2024/04/25 07:15:26;;;;;;;;;5.00;4.25;;;;;10.17;51.27;100314.25;5438109;26;70786;-64
2024/04/25 07:17:55;;;;;;;;;6.50;3.00;;;;;10.15;50.14;100301.25;5468136;25;45365;-65
2024/04/25 07:20:21;;;;;;;;;5.25;4.25;;;;;10.16;49.86;100300.31;5477273;25;44468;-64
2024/04/25 07:22:46;;;;;;;;;5.25;4.00;;;;;10.18;49.58;100298.53;5458366;26;43934;-65
2024/04/25 07:25:13;;;;;;;;;11.50;5.00;;;;;10.21;50.10;100294.94;5452185;26;66064;-65
2024/04/25 07:27:40;;;;;;;;;6.00;3.00;;;;;10.26;49.50;100295.66;5449214;25;45076;-64
2024/04/25 07:30:06;;;;;;;;;5.00;4.25;;;;;10.30;48.79;100299.03;5454322;25;44313;-64
2024/04/25 07:32:31;;;;;;;;;9.75;4.25;;;;;10.34;49.58;100293.69;5465232;26;43971;-65
2024/04/25 07:34:56;;;;;;;;;5.50;4.00;;;;;10.38;49.40;100287.44;5463530;26;67563;-64
2024/04/25 07:37:25;;;;;;;;;8.25;6.00;;;;;10.44;49.42;100287.22;5458995;26;71268;-63
2024/04/25 07:39:51;;;;;;;;;6.25;6.00;;;;;10.47;49.23;100282.81;5462249;26;44213;-63
2024/04/25 07:42:16;;;;;;;;;7.25;5.00;;;;;10.50;49.10;100288.78;5438016;26;49878;-65
2024/04/25 07:44:42;;;;;;;;;5.25;5.00;;;;;10.53;49.44;100278.19;5447579;26;43858;-64
2024/04/25 07:47:08;;;;;;;;;1.00;1.00;;;;;10.58;48.80;100278.06;5466852;25;44867;-63
2024/04/25 07:49:34;;;;;;;;;4.75;3.00;;;;;10.64;49.18;100277.81;5464458;26;43793;-64
2024/04/25 07:51:59;;;;;;;;;6.00;5.50;;;;;10.67;48.66;100279.50;5465049;25;43877;-64
2024/04/25 07:54:24;;;;;;;;;9.75;8.50;;;;;10.71;48.96;100275.88;5449168;26;69581;-65
2024/04/25 07:56:50;;;;;;;;;9.00;5.50;;;;;10.75;47.64;100273.09;5438208;26;68314;-64
2024/04/25 07:59:15;;;;;;;;;7.75;6.00;;;;;10.80;48.37;100272.91;5448154;26;47259;-64
2024/04/25 08:01:40;;;;;;;;;9.50;7.50;;;;;10.86;48.53;100275.34;5468046;25;43888;-65
2024/04/25 08:04:05;;;;;;;;;8.75;7.50;;;;;10.92;47.89;100266.41;5467572;25;56696;-65
2024/04/25 08:06:34;;;;;;;;;7.00;5.00;;;;;10.98;47.54;100266.19;5467149;25;43824;-65
2024/04/25 08:08:59;;;;;;;;;9.00;8.00;;;;;11.01;47.92;100261.69;5450599;25;43915;-66
2024/04/25 08:11:25;;;;;;;;;12.75;8.75;;;;;11.08;47.73;100267.53;5464004;25;43221;-67
2024/04/25 08:13:50;;;;;;;;;9.00;6.75;;;;;11.14;47.34;100269.94;5431305;26;43863;-65
2024/04/25 08:16:15;;;;;;;;;10.00;6.00;;;;;11.23;47.54;100262.69;5447478;26;72927;-66
2024/04/25 08:18:43;;;;;;;;;6.75;5.00;;;;;11.34;47.52;100255.25;5435282;25;59595;-66
2024/04/25 08:21:08;;;;;;;;;7.00;5.50;;;;;11.46;46.57;100264.44;5430792;26;43934;-64
2024/04/25 08:23:33;;;;;;;;;2.00;2.00;;;;;11.54;45.12;100260.59;5449582;25;43759;-70
2024/04/25 08:25:59;;;;;;;;;8.00;3.00;;;;;11.65;44.90;100256.69;5462401;26;65041;-68
2024/04/25 08:28:25;;;;;;;;;9.50;4.00;;;;;11.69;44.45;100260.91;5435680;25;43708;-78
2024/04/25 08:30:50;;;;;;;;;7.50;5.75;;;;;11.72;44.06;100263.38;5456070;26;44412;-77
2024/04/25 08:33:15;;;;;;;;;2.75;2.75;;;;;11.74;44.10;100253.72;5450151;25;67887;-70
2024/04/25 08:35:41;;;;;;;;;5.00;5.00;;;;;11.78;43.75;100248.28;5437630;25;74380;-71
2024/04/25 08:38:06;;;;;;;;;8.00;5.00;;;;;11.82;43.73;100256.88;5445105;26;43916;-70
2024/04/25 08:40:35;;;;;;;;;8.00;5.00;;;;;11.91;43.72;100253.91;5462207;25;44099;-71
2024/04/25 08:43:02;;;;;;;;;1.50;1.00;;;;;12.02;43.18;100250.84;5456822;26;44160;-67
2024/04/25 08:45:27;;;;;;;;;6.75;4.75;;;;;12.15;43.26;100251.22;5434671;25;44780;-74
2024/04/25 08:47:56;;;;;;;;;4.50;2.00;;;;;12.26;42.73;100256.03;5432273;26;43839;-70
2024/04/25 08:50:21;;;;;;;;;3.75;3.00;;;;;12.34;42.82;100251.28;5462005;25;43963;-76
2024/04/25 08:52:47;;;;;;;;;6.25;5.00;;;;;12.37;43.04;100253.78;5457415;26;43945;-76
2024/04/25 08:55:14;;;;;;;;;3.75;2.00;;;;;12.34;42.12;100252.16;5437417;26;44054;-69
2024/04/25 08:57:39;;;;;;;;;5.75;3.25;;;;;12.28;42.03;100247.16;5452579;26;43886;-72
2024/04/25 09:00:05;;;;;;;;;4.75;3.00;;;;;12.24;41.70;100242.97;5464153;26;43945;-72
2024/04/25 09:02:34;;;;;;;;;6.75;5.75;;;;;12.25;41.92;100242.06;5462860;26;43998;-72
2024/04/25 09:05:00;;;;;;;;;5.50;3.75;;;;;12.34;41.66;100233.78;5457954;26;43921;-74
2024/04/25 09:07:27;;;;;;;;;5.50;2.00;;;;;12.56;41.86;100235.50;5457192;25;43854;-72
2024/04/25 09:09:55;;;;;;;;;5.75;3.25;;;;;12.81;41.52;100223.91;5452021;26;43960;-73
2024/04/25 09:12:20;;;;;;;;;6.25;5.75;;;;;13.05;41.40;100228.06;5443511;25;43799;-72
2024/04/25 09:14:45;;;;;;;;;8.50;6.25;;;;;13.25;41.32;100219.25;5430389;26;59824;-74
2024/04/25 09:17:17;;;;;;;;;6.25;5.00;;;;;13.42;40.91;100218.53;5442138;26;70423;-72
2024/04/25 09:19:43;;;;;;;;;7.00;5.00;;;;;13.64;40.21;100215.72;5430782;26;43824;-72
2024/04/25 09:22:10;;;;;;;;;6.75;4.00;;;;;13.72;39.47;100210.06;5440871;26;43846;-73
2024/04/25 09:24:35;;;;;;;;;3.00;3.00;;;;;13.79;39.17;100210.63;5442983;26;45038;-74
2024/04/25 09:27:00;;;;;;;;;4.50;4.00;;;;;13.90;38.79;100203.09;5451138;26;69685;-72
2024/04/25 09:29:26;;;;;;;;;5.25;4.00;;;;;14.00;39.50;100206.09;5451884;26;43763;-71
2024/04/25 09:31:52;;;;;;;;;3.25;3.25;;;;;13.96;37.78;100200.13;5434735;26;44110;-72
2024/04/25 09:34:18;;;;;;;;;5.00;3.50;;;;;13.88;37.33;100206.69;5461714;26;44961;-71
2024/04/25 09:36:44;;;;;;;;;4.75;3.00;;;;;13.75;37.91;100196.78;5454890;26;45240;-68
2024/04/25 09:39:09;;;;;;;;;3.75;3.00;;;;;13.69;37.72;100194.47;5458867;26;43906;-63
2024/04/25 09:41:35;;;;;;;;;4.00;4.00;;;;;13.70;37.83;100193.53;5451431;26;51813;-66
2024/04/25 09:44:00;;;;;;;;;5.50;4.00;;;;;13.72;38.02;100185.56;5464636;26;44773;-64
2024/04/25 09:46:36;;;;;;;;;5.75;3.00;;;;;13.84;37.75;100195.47;5449807;26;43855;-65
2024/04/25 09:49:04;;;;;;;;;8.00;3.50;;;;;13.91;37.25;100186.34;5464369;26;43825;-66
2024/04/25 09:51:36;;;;;;;;;8.00;4.50;;;;;14.06;37.49;100174.22;5448293;26;45295;-67
2024/04/25 09:54:28;;;;;;;;;4.75;3.25;;;;;14.23;37.35;100171.56;5435868;26;44908;-65
2024/04/25 09:57:04;;;;;;;;;6.25;4.25;;;;;14.44;37.18;100171.41;5449418;26;43905;-71
2024/04/25 09:59:36;;;;;;;;;6.25;4.25;;;;;14.59;36.86;100168.00;5456965;25;44002;-68
2024/04/25 10:02:03;;;;;;;;;4.25;4.25;;;;;14.73;37.38;100164.66;5448313;25;43791;-67
2024/04/25 10:04:31;;;;;;;;;7.00;5.25;;;;;14.81;36.54;100157.16;5444491;26;44734;-62
2024/04/25 10:06:59;;;;;;;;;6.00;4.25;;;;;14.79;36.66;100161.66;5436110;26;43834;-67
2024/04/25 10:09:24;;;;;;;;;5.00;5.00;;;;;14.84;36.30;100163.19;5450697;26;63040;-67
2024/04/25 10:11:50;;;;;;;;;5.25;4.50;;;;;14.87;36.71;100150.69;5448598;26;44025;-67
2024/04/25 10:14:25;;;;;;;;;15.50;9.25;;;;;14.99;36.89;100151.81;5438558;26;66032;-67
2024/04/25 10:16:54;;;;;;;;;8.50;7.75;;;;;14.97;37.02;100151.91;5450791;25;44053;-78
2024/04/25 10:19:19;;;;;;;;;12.50;8.00;;;;;14.87;36.03;100155.13;5432535;26;43738;-65
2024/04/25 10:21:45;;;;;;;;;6.75;6.25;;;;;14.67;36.26;100149.16;5448250;26;44008;-66
2024/04/25 10:24:13;;;;;;;;;9.00;6.25;;;;;14.45;36.19;100144.16;5431597;26;45701;-66
2024/04/25 10:26:49;;;;;;;;;12.75;7.00;;;;;14.25;37.11;100150.44;5439626;26;43809;-72
2024/04/25 10:29:14;;;;;;;;;8.50;6.50;;;;;14.12;36.71;100146.75;5445899;26;43901;-74
2024/04/25 10:31:41;;;;;;;;;10.75;7.00;;;;;13.99;36.92;100149.16;5461587;25;44866;-67
2024/04/25 10:34:06;;;;;;;;;8.50;7.00;;;;;13.85;36.92;100142.81;5421805;26;46899;-68
2024/04/25 10:36:32;;;;;;;;;13.00;8.50;;;;;13.73;37.33;100134.69;5461775;26;43914;-71
2024/04/25 10:38:58;;;;;;;;;9.00;5.75;;;;;13.62;37.36;100143.94;5465984;25;43724;-67
2024/04/25 10:41:37;;;;;;;;;6.00;6.00;;;;;13.61;37.67;100136.97;5462884;26;44006;-69
2024/04/25 10:44:03;;;;;;;;;10.75;7.50;;;;;13.65;36.99;100121.91;5442935;26;43952;-69
2024/04/25 10:46:29;;;;;;;;;7.25;6.00;;;;;13.71;37.48;100112.88;5458907;26;44418;-70
2024/04/25 10:48:55;;;;;;;;;7.00;7.00;;;;;13.78;37.18;100106.38;5448954;25;43877;-68
2024/04/25 10:51:20;;;;;;;;;9.25;8.50;;;;;13.94;37.40;100112.56;5446954;26;63573;-69
2024/04/25 10:53:48;;;;;;;;;8.25;6.75;;;;;14.10;36.68;100103.88;5437370;26;72844;-71
2024/04/25 10:56:14;;;;;;;;;11.75;5.75;;;;;14.33;37.06;100103.53;5427084;26;43848;-72
2024/04/25 10:58:57;;;;;;;;;6.50;5.50;;;;;14.52;36.57;100099.91;5454047;25;44069;-73
2024/04/25 11:01:30;;;;;;;;;8.50;6.00;;;;;14.65;35.79;100100.97;5462321;26;43949;-75
2024/04/25 11:04:01;;;;;;;;;6.25;4.00;;;;;14.75;36.24;100090.78;5456491;26;46353;-77
2024/04/25 11:06:29;;;;;;;;;7.50;6.00;;;;;14.91;36.07;100085.53;5421709;26;44536;-71
2024/04/25 11:08:54;;;;;;;;;9.00;5.25;;;;;15.06;35.59;100091.75;5430411;26;44005;-73
2024/04/25 11:11:21;;;;;;;;;5.50;5.50;;;;;15.16;36.04;100090.28;5436007;25;44037;-69
2024/04/25 11:13:46;;;;;;;;;6.50;6.50;;;;;15.29;35.47;100088.66;5425114;26;44018;-68
2024/04/25 11:16:11;;;;;;;;;9.00;4.75;;;;;15.44;35.29;100086.94;5431777;26;62381;-71
2024/04/25 11:18:37;;;;;;;;;4.50;4.50;;;;;15.55;34.94;100078.41;5444116;25;68807;-66
2024/04/25 11:21:04;;;;;;;;;6.50;5.00;;;;;15.67;35.03;100076.81;5430469;25;43879;-68
2024/04/25 11:23:30;;;;;;;;;8.00;6.75;;;;;15.74;34.58;100078.16;5428273;26;44897;-69
2024/04/25 11:25:56;;;;;;;;;11.50;6.50;;;;;15.75;35.20;100078.09;5432186;26;43692;-70
2024/04/25 11:28:21;;;;;;;;;8.50;6.50;;;;;15.68;34.57;100073.25;5432656;25;44033;-71